Kenneth Carl — WDF8246 — position and weather

sailwx.info

Track history (hours):
 
Tides and Currents Weather Stations Pressure Air Temp Water Temp Dewpoint Dewpoint Depression Visibility Wind Speed Wind Dir Waves Ship Positions

Kenneth Carl

Owner: So. Cal. Ship Services, Inc., San Pedro, CA. More information available from US FCC via Universal Licensing System and Coast Guard Vessel Documentation Center.

Last reported at 2015-Aug-05 11:34 UTC. Time now 2015-Aug-05 12:28 UTC.
Position N 33°44' W 118°16'.

Length 31 m; draft 3 m.

Type: Ship. MMSI: 367492920.

Date/timePositionNaut miles runAvg speedWind from/ knotsBaromVisibWave heightAir tempDewpointWater temp
2015-Aug-05 11:34N 33°44' W 118°16'0 0.0
2015-Aug-05 10:33N 33°44' W 118°16'0 0.0
2015-Aug-05 09:33N 33°44' W 118°16'0 0.0
2015-Aug-05 08:33N 33°44' W 118°16'0 0.0
2015-Aug-05 07:34N 33°44' W 118°16'0 0.0
2015-Aug-05 06:33N 33°44' W 118°16'0 0.0
2015-Aug-05 05:32N 33°44' W 118°16'0 0.0
2015-Aug-05 04:33N 33°44' W 118°16'0 0.0
2015-Aug-05 03:33N 33°44' W 118°16'0 0.0
2015-Aug-05 02:33N 33°44' W 118°16'0 0.0
2015-Aug-05 01:33N 33°44' W 118°16'0 0.0
2015-Aug-05 00:34N 33°44' W 118°16'0 0.4
2015-Aug-04 23:33N 33°44' W 118°16'0 0.0
2015-Aug-04 22:33N 33°44' W 118°16'3 2.6
2015-Aug-04 21:34N 33°42' W 118°14'9 8.6
2015-Aug-04 20:31N 33°35' W 118°08'1 1.3
2015-Aug-04 19:33N 33°34' W 118°07'0 0.0
2015-Aug-04 18:34N 33°34' W 118°07'0 0.0
2015-Aug-04 17:33N 33°34' W 118°07'1 0.8
2015-Aug-04 16:33N 33°35' W 118°08'4 2.8
2015-Aug-04 15:17N 33°38' W 118°10'710.1
2015-Aug-04 14:34N 33°43' W 118°16'1 0.1
2015-Aug-04 05:29N 33°44' W 118°16'0 0.0
2015-Aug-04 02:17N 33°44' W 118°16'0 0.0
2015-Aug-04 01:32N 33°44' W 118°16'0 0.0
2015-Aug-04 00:29N 33°44' W 118°16'0 0.4
2015-Aug-03 23:34N 33°44' W 118°16'10 9.0
2015-Aug-03 22:25N 33°36' W 118°09'1 1.4
2015-Aug-03 21:33N 33°35' W 118°08'0 0.0
2015-Aug-03 20:33N 33°35' W 118°08'0 0.0
2015-Aug-03 19:31N 33°35' W 118°08'0 0.0
2015-Aug-03 18:33N 33°35' W 118°08'1 1.2
2015-Aug-03 17:33N 33°34' W 118°07'5 5.3
2015-Aug-03 16:34N 33°38' W 118°10'8 0.5
2015-Aug-03 02:32N 33°44' W 118°16'7 6.2
2015-Aug-03 01:24N 33°39' W 118°11'5 5.3
2015-Aug-03 00:32N 33°35' W 118°08'0 0.0
2015-Aug-02 23:33N 33°35' W 118°08'12 3.8
2015-Aug-02 20:30N 33°44' W 118°16'12 5.9
2015-Aug-02 18:32N 33°35' W 118°08'0 0.1
2015-Aug-02 17:30N 33°35' W 118°08'0 0.2
2015-Aug-02 16:26N 33°35' W 118°08'910.0
2015-Aug-02 15:33N 33°42' W 118°14'3 1.1
2015-Aug-02 13:04N 33°44' W 118°16'0 0.0
2015-Aug-02 01:19N 33°44' W 118°16'0 0.0
2015-Aug-01 21:31N 33°44' W 118°16'0 0.0
2015-Aug-01 20:25N 33°44' W 118°16'0 0.0
2015-Aug-01 17:28N 33°44' W 118°16'0 0.0
2015-Aug-01 05:28N 33°44' W 118°16'0 0.0
2015-Aug-01 04:31N 33°44' W 118°16'0 0.0
2015-Aug-01 03:28N 33°44' W 118°16'0 0.0
2015-Aug-01 02:31N 33°44' W 118°16'0 0.0
2015-Aug-01 01:28N 33°44' W 118°16'0 0.0
2015-Aug-01 00:32N 33°44' W 118°16'1 0.6
2015-Jul-31 23:33N 33°44' W 118°16'9 9.1
2015-Jul-31 22:33N 33°36' W 118°09'2 2.0
2015-Jul-31 21:33N 33°35' W 118°08'0 0.1
2015-Jul-31 20:33N 33°35' W 118°08'0 0.0
2015-Jul-31 19:33N 33°35' W 118°08'0 0.0
2015-Jul-31 18:28N 33°35' W 118°08'0 0.0
2015-Jul-31 17:33N 33°35' W 118°08'0 0.1
2015-Jul-31 16:33N 33°35' W 118°08'10 8.8
2015-Jul-31 15:24N 33°43' W 118°15'1 0.7
2015-Jul-31 13:24N 33°44' W 118°16'0 0.4
2015-Jul-31 12:28N 33°44' W 118°16'0 0.0
2015-Jul-31 04:31N 33°44' W 118°16'0 0.0
2015-Jul-31 03:25N 33°44' W 118°16'0 0.0
2015-Jul-31 02:31N 33°44' W 118°16'0 0.0
2015-Jul-31 00:13N 33°44' W 118°16'0 0.0
2015-Jul-30 23:33N 33°44' W 118°16'0 0.0
2015-Jul-30 22:33N 33°44' W 118°16'12 3.6
2015-Jul-30 19:21N 33°35' W 118°08'0 0.0
2015-Jul-30 17:16N 33°35' W 118°08'0 0.3
2015-Jul-30 16:29N 33°35' W 118°07'4 4.7
2015-Jul-30 15:33N 33°39' W 118°10'7 0.6
2015-Jul-30 03:13N 33°44' W 118°16'0 0.0
2015-Jul-30 02:31N 33°44' W 118°16'0 0.0
2015-Jul-30 01:31N 33°44' W 118°16'0 0.0
2015-Jul-30 00:25N 33°44' W 118°16'12 5.8
2015-Jul-29 22:24N 33°35' W 118°08'0 0.0
2015-Jul-29 17:30N 33°35' W 118°08'1 1.2
2015-Jul-29 16:28N 33°34' W 118°07'9 7.7
2015-Jul-29 15:20N 33°41' W 118°13'4 0.4
2015-Jul-29 06:05N 33°44' W 118°16'0 0.0
2015-Jul-29 05:29N 33°44' W 118°16'0 0.0
2015-Jul-29 04:29N 33°44' W 118°16'0 0.0
2015-Jul-29 02:32N 33°44' W 118°16'0 0.0
2015-Jul-29 01:23N 33°44' W 118°16'1 0.3
2015-Jul-28 23:33N 33°43' W 118°16'10 9.5
2015-Jul-28 22:33N 33°36' W 118°09'2 1.7
2015-Jul-28 21:33N 33°35' W 118°08'1 0.6
2015-Jul-28 20:30N 33°34' W 118°07'3 2.8
2015-Jul-28 19:33N 33°37' W 118°09'10 9.6
2015-Jul-28 18:33N 33°44' W 118°16'10 6.6
2015-Jul-28 17:06N 33°37' W 118°09'3 4.9
2015-Jul-28 16:27N 33°34' W 118°07'0 0.0
2015-Jul-28 15:25N 33°34' W 118°07'8 7.9
2015-Jul-28 14:22N 33°40' W 118°13'5 5.5
2015-Jul-28 13:33N 33°44' W 118°16'0 0.0
2015-Jul-28 12:17N 33°44' W 118°16'0 0.0
2015-Jul-28 11:27N 33°44' W 118°16'0 0.0
2015-Jul-28 09:32N 33°44' W 118°16'0 0.0
2015-Jul-28 08:30N 33°44' W 118°16'0 0.0
2015-Jul-28 07:33N 33°44' W 118°16'0 0.0
2015-Jul-28 06:32N 33°44' W 118°16'0 0.0
2015-Jul-28 05:33N 33°44' W 118°16'0 0.0
2015-Jul-28 04:33N 33°44' W 118°16'0 0.0
2015-Jul-28 03:33N 33°44' W 118°16'0 0.0
2015-Jul-28 02:33N 33°44' W 118°16'0 0.0
2015-Jul-28 01:33N 33°44' W 118°16'0 0.0
2015-Jul-28 00:14N 33°44' W 118°16'0 0.0
2015-Jul-27 23:29N 33°44' W 118°16'12 9.0
2015-Jul-27 22:12N 33°35' W 118°08'0 0.2
2015-Jul-27 21:32N 33°35' W 118°08'0 0.1
2015-Jul-27 20:26N 33°35' W 118°08'0 0.0
2015-Jul-27 17:30N 33°35' W 118°08'12 2.8
2015-Jul-27 13:21N 33°44' W 118°16'0 0.0
2015-Jul-27 04:33N 33°44' W 118°16'0 0.0
2015-Jul-27 03:33N 33°44' W 118°16'0 0.0
2015-Jul-27 02:33N 33°44' W 118°16'0 0.0
2015-Jul-27 01:25N 33°44' W 118°16'0 0.0
2015-Jul-26 23:24N 33°44' W 118°16'0 0.0
2015-Jul-26 22:33N 33°44' W 118°16'0 0.0
2015-Jul-26 21:33N 33°44' W 118°16'0 0.0
2015-Jul-26 20:22N 33°44' W 118°16'0 0.0
2015-Jul-26 19:33N 33°44' W 118°16'0 0.0
2015-Jul-26 18:16N 33°44' W 118°16'0 0.0
2015-Jul-26 17:29N 33°44' W 118°16'0 0.0
2015-Jul-26 15:31N 33°44' W 118°16'  
Track history (hours):
 
Tides and Currents Weather Stations Pressure Air Temp Water Temp Dewpoint Dewpoint Depression Visibility Wind Speed Wind Dir Waves Ship Positions

Kenneth Carl

Owner: So. Cal. Ship Services, Inc., San Pedro, CA. More information available from US FCC via Universal Licensing System and Coast Guard Vessel Documentation Center.

Last reported at 2015-Aug-05 11:34 UTC. Time now 2015-Aug-05 12:28 UTC.
Position N 33°44' W 118°16'.

Length 31 m; draft 3 m.

Type: Ship. MMSI: 367492920.

Date/timePositionNaut miles runAvg speedWind from/ knotsBaromVisibWave heightAir tempDewpointWater temp
2015-Aug-05 11:34N 33°44' W 118°16'0 0.0
2015-Aug-05 10:33N 33°44' W 118°16'0 0.0
2015-Aug-05 09:33N 33°44' W 118°16'0 0.0
2015-Aug-05 08:33N 33°44' W 118°16'0 0.0
2015-Aug-05 07:34N 33°44' W 118°16'0 0.0
2015-Aug-05 06:33N 33°44' W 118°16'0 0.0
2015-Aug-05 05:32N 33°44' W 118°16'0 0.0
2015-Aug-05 04:33N 33°44' W 118°16'0 0.0
2015-Aug-05 03:33N 33°44' W 118°16'0 0.0
2015-Aug-05 02:33N 33°44' W 118°16'0 0.0
2015-Aug-05 01:33N 33°44' W 118°16'0 0.0
2015-Aug-05 00:34N 33°44' W 118°16'0 0.4
2015-Aug-04 23:33N 33°44' W 118°16'0 0.0
2015-Aug-04 22:33N 33°44' W 118°16'3 2.6
2015-Aug-04 21:34N 33°42' W 118°14'9 8.6
2015-Aug-04 20:31N 33°35' W 118°08'1 1.3
2015-Aug-04 19:33N 33°34' W 118°07'0 0.0
2015-Aug-04 18:34N 33°34' W 118°07'0 0.0
2015-Aug-04 17:33N 33°34' W 118°07'1 0.8
2015-Aug-04 16:33N 33°35' W 118°08'4 2.8
2015-Aug-04 15:17N 33°38' W 118°10'710.1
2015-Aug-04 14:34N 33°43' W 118°16'1 0.1
2015-Aug-04 05:29N 33°44' W 118°16'0 0.0
2015-Aug-04 02:17N 33°44' W 118°16'0 0.0
2015-Aug-04 01:32N 33°44' W 118°16'0 0.0
2015-Aug-04 00:29N 33°44' W 118°16'0 0.4
2015-Aug-03 23:34N 33°44' W 118°16'10 9.0
2015-Aug-03 22:25N 33°36' W 118°09'1 1.4
2015-Aug-03 21:33N 33°35' W 118°08'0 0.0
2015-Aug-03 20:33N 33°35' W 118°08'0 0.0
2015-Aug-03 19:31N 33°35' W 118°08'0 0.0
2015-Aug-03 18:33N 33°35' W 118°08'1 1.2
2015-Aug-03 17:33N 33°34' W 118°07'5 5.3
2015-Aug-03 16:34N 33°38' W 118°10'8 0.5
2015-Aug-03 02:32N 33°44' W 118°16'7 6.2
2015-Aug-03 01:24N 33°39' W 118°11'5 5.3
2015-Aug-03 00:32N 33°35' W 118°08'0 0.0
2015-Aug-02 23:33N 33°35' W 118°08'12 3.8
2015-Aug-02 20:30N 33°44' W 118°16'12 5.9
2015-Aug-02 18:32N 33°35' W 118°08'0 0.1
2015-Aug-02 17:30N 33°35' W 118°08'0 0.2
2015-Aug-02 16:26N 33°35' W 118°08'910.0
2015-Aug-02 15:33N 33°42' W 118°14'3 1.1
2015-Aug-02 13:04N 33°44' W 118°16'0 0.0
2015-Aug-02 01:19N 33°44' W 118°16'0 0.0
2015-Aug-01 21:31N 33°44' W 118°16'0 0.0
2015-Aug-01 20:25N 33°44' W 118°16'0 0.0
2015-Aug-01 17:28N 33°44' W 118°16'0 0.0
2015-Aug-01 05:28N 33°44' W 118°16'0 0.0
2015-Aug-01 04:31N 33°44' W 118°16'0 0.0
2015-Aug-01 03:28N 33°44' W 118°16'0 0.0
2015-Aug-01 02:31N 33°44' W 118°16'0 0.0
2015-Aug-01 01:28N 33°44' W 118°16'0 0.0
2015-Aug-01 00:32N 33°44' W 118°16'1 0.6
2015-Jul-31 23:33N 33°44' W 118°16'9 9.1
2015-Jul-31 22:33N 33°36' W 118°09'2 2.0
2015-Jul-31 21:33N 33°35' W 118°08'0 0.1
2015-Jul-31 20:33N 33°35' W 118°08'0 0.0
2015-Jul-31 19:33N 33°35' W 118°08'0 0.0
2015-Jul-31 18:28N 33°35' W 118°08'0 0.0
2015-Jul-31 17:33N 33°35' W 118°08'0 0.1
2015-Jul-31 16:33N 33°35' W 118°08'10 8.8
2015-Jul-31 15:24N 33°43' W 118°15'1 0.7
2015-Jul-31 13:24N 33°44' W 118°16'0 0.4
2015-Jul-31 12:28N 33°44' W 118°16'0 0.0
2015-Jul-31 04:31N 33°44' W 118°16'0 0.0
2015-Jul-31 03:25N 33°44' W 118°16'0 0.0
2015-Jul-31 02:31N 33°44' W 118°16'0 0.0
2015-Jul-31 00:13N 33°44' W 118°16'0 0.0
2015-Jul-30 23:33N 33°44' W 118°16'0 0.0
2015-Jul-30 22:33N 33°44' W 118°16'12 3.6
2015-Jul-30 19:21N 33°35' W 118°08'0 0.0
2015-Jul-30 17:16N 33°35' W 118°08'0 0.3
2015-Jul-30 16:29N 33°35' W 118°07'4 4.7
2015-Jul-30 15:33N 33°39' W 118°10'7 0.6
2015-Jul-30 03:13N 33°44' W 118°16'0 0.0
2015-Jul-30 02:31N 33°44' W 118°16'0 0.0
2015-Jul-30 01:31N 33°44' W 118°16'0 0.0
2015-Jul-30 00:25N 33°44' W 118°16'12 5.8
2015-Jul-29 22:24N 33°35' W 118°08'0 0.0
2015-Jul-29 17:30N 33°35' W 118°08'1 1.2
2015-Jul-29 16:28N 33°34' W 118°07'9 7.7
2015-Jul-29 15:20N 33°41' W 118°13'4 0.4
2015-Jul-29 06:05N 33°44' W 118°16'0 0.0
2015-Jul-29 05:29N 33°44' W 118°16'0 0.0
2015-Jul-29 04:29N 33°44' W 118°16'0 0.0
2015-Jul-29 02:32N 33°44' W 118°16'0 0.0
2015-Jul-29 01:23N 33°44' W 118°16'1 0.3
2015-Jul-28 23:33N 33°43' W 118°16'10 9.5
2015-Jul-28 22:33N 33°36' W 118°09'2 1.7
2015-Jul-28 21:33N 33°35' W 118°08'1 0.6
2015-Jul-28 20:30N 33°34' W 118°07'3 2.8
2015-Jul-28 19:33N 33°37' W 118°09'10 9.6
2015-Jul-28 18:33N 33°44' W 118°16'10 6.6
2015-Jul-28 17:06N 33°37' W 118°09'3 4.9
2015-Jul-28 16:27N 33°34' W 118°07'0 0.0
2015-Jul-28 15:25N 33°34' W 118°07'8 7.9
2015-Jul-28 14:22N 33°40' W 118°13'5 5.5
2015-Jul-28 13:33N 33°44' W 118°16'0 0.0
2015-Jul-28 12:17N 33°44' W 118°16'0 0.0
2015-Jul-28 11:27N 33°44' W 118°16'0 0.0
2015-Jul-28 09:32N 33°44' W 118°16'0 0.0
2015-Jul-28 08:30N 33°44' W 118°16'0 0.0
2015-Jul-28 07:33N 33°44' W 118°16'0 0.0
2015-Jul-28 06:32N 33°44' W 118°16'0 0.0
2015-Jul-28 05:33N 33°44' W 118°16'0 0.0
2015-Jul-28 04:33N 33°44' W 118°16'0 0.0
2015-Jul-28 03:33N 33°44' W 118°16'0 0.0
2015-Jul-28 02:33N 33°44' W 118°16'0 0.0
2015-Jul-28 01:33N 33°44' W 118°16'0 0.0
2015-Jul-28 00:14N 33°44' W 118°16'0 0.0
2015-Jul-27 23:29N 33°44' W 118°16'12 9.0
2015-Jul-27 22:12N 33°35' W 118°08'0 0.2
2015-Jul-27 21:32N 33°35' W 118°08'0 0.1
2015-Jul-27 20:26N 33°35' W 118°08'0 0.0
2015-Jul-27 17:30N 33°35' W 118°08'12 2.8
2015-Jul-27 13:21N 33°44' W 118°16'0 0.0
2015-Jul-27 04:33N 33°44' W 118°16'0 0.0
2015-Jul-27 03:33N 33°44' W 118°16'0 0.0
2015-Jul-27 02:33N 33°44' W 118°16'0 0.0
2015-Jul-27 01:25N 33°44' W 118°16'0 0.0
2015-Jul-26 23:24N 33°44' W 118°16'0 0.0
2015-Jul-26 22:33N 33°44' W 118°16'0 0.0
2015-Jul-26 21:33N 33°44' W 118°16'0 0.0
2015-Jul-26 20:22N 33°44' W 118°16'0 0.0
2015-Jul-26 19:33N 33°44' W 118°16'0 0.0
2015-Jul-26 18:16N 33°44' W 118°16'0 0.0
2015-Jul-26 17:29N 33°44' W 118°16'0 0.0
2015-Jul-26 15:31N 33°44' W 118°16'  

Dump ship's entire track history